Time;durP1;ratioP1;P1;durP2;ratioP2;P2;SDS_P1;SDS_P2;PMS_P1;PMS_P2;Temp;Humidity;BMP_temperature;BMP_pressure;BME280_temperature;BME280_humidity;BME280_pressure;Samples;Min_cycle;Max_cycle;Signal;HPM_P1;HPM_P2
2024/03/04 05:26:17;;;;;;;10.20;3.30;;;25.80;99.90;;;;;;4714745;27;10001600;-61
2024/03/04 05:28:44;;;;;;;13.15;3.65;;;25.80;99.90;;;;;;5072883;28;20032;-66
2024/03/04 05:31:11;;;;;;;10.18;3.22;;;25.80;99.60;;;;;;5069430;28;20020;-61
2024/03/04 05:33:38;;;;;;;9.73;3.15;;;26.10;99.70;;;;;;5065777;28;20086;-68
2024/03/04 05:36:08;;;;;;;10.85;4.07;;;26.60;99.20;;;;;;5068086;28;20036;-63
2024/03/04 05:38:35;;;;;;;12.50;3.63;;;26.60;98.80;;;;;;5071371;28;20099;-62
2024/03/04 05:41:02;;;;;;;9.50;3.28;;;26.40;99.40;;;;;;5072635;28;20138;-63
2024/03/04 05:43:29;;;;;;;11.32;3.28;;;26.40;99.60;;;;;;5062559;28;20135;-61
2024/03/04 05:45:56;;;;;;;10.18;3.20;;;26.70;98.40;;;;;;5070579;28;20039;-61
2024/03/04 05:48:23;;;;;;;13.18;3.38;;;26.40;99.20;;;;;;5066523;28;20025;-65
2024/03/04 05:50:50;;;;;;;12.95;3.28;;;26.20;99.10;;;;;;5074224;28;20021;-65
2024/03/04 05:53:18;;;;;;;11.30;3.38;;;26.30;99.10;;;;;;5069462;28;20032;-63
2024/03/04 05:55:45;;;;;;;8.73;2.90;;;26.70;99.00;;;;;;5072810;28;20054;-68
2024/03/04 05:58:14;;;;;;;8.27;2.75;;;27.20;98.60;;;;;;5066953;28;20027;-63
2024/03/04 06:00:42;;;;;;;12.63;4.25;;;26.80;98.70;;;;;;5069646;28;20036;-62
2024/03/04 06:03:09;;;;;;;10.68;3.20;;;26.00;99.10;;;;;;5066284;28;20417;-66
2024/03/04 06:05:36;;;;;;;6.93;2.15;;;25.40;99.90;;;;;;5065994;28;20367;-61
2024/03/04 06:08:04;;;;;;;8.93;3.28;;;25.10;99.80;;;;;;5065370;28;20278;-61
2024/03/04 06:10:31;;;;;;;9.70;3.28;;;24.80;99.90;;;;;;5067838;28;20016;-66
2024/03/04 06:12:58;;;;;;;9.82;3.13;;;24.80;99.90;;;;;;5062526;28;20036;-61
2024/03/04 06:15:27;;;;;;;17.00;3.78;;;24.50;99.90;;;;;;5066052;28;20439;-63
2024/03/04 06:17:54;;;;;;;11.02;3.30;;;24.40;99.90;;;;;;5066452;28;20029;-61
2024/03/04 06:20:21;;;;;;;15.60;3.83;;;24.00;99.90;;;;;;5066855;28;20040;-65
2024/03/04 06:22:48;;;;;;;16.83;6.57;;;23.80;99.90;;;;;;5063500;28;20032;-63
2024/03/04 06:25:16;;;;;;;13.43;3.58;;;24.00;99.90;;;;;;5069043;28;20040;-68
2024/03/04 06:27:43;;;;;;;12.80;3.72;;;24.20;99.90;;;;;;5067351;28;20078;-63
2024/03/04 06:30:13;;;;;;;11.82;2.83;;;24.20;99.90;;;;;;5057965;28;20025;-66
2024/03/04 06:32:40;;;;;;;10.10;2.95;;;24.10;99.90;;;;;;5064555;28;20028;-60
2024/03/04 06:35:07;;;;;;;10.90;3.28;;;24.10;99.90;;;;;;5065597;28;20511;-65
2024/03/04 06:37:34;;;;;;;11.77;3.58;;;24.00;99.90;;;;;;5052567;28;20120;-60
2024/03/04 06:40:01;;;;;;;11.52;3.63;;;24.20;99.90;;;;;;5051808;28;20080;-70
2024/03/04 06:42:28;;;;;;;10.77;3.65;;;24.10;99.90;;;;;;5051160;28;20052;-61
2024/03/04 06:44:55;;;;;;;13.18;3.80;;;24.20;99.90;;;;;;5055433;28;20082;-62
2024/03/04 06:47:23;;;;;;;13.48;3.28;;;24.30;99.90;;;;;;5051599;28;20258;-66
2024/03/04 06:49:51;;;;;;;12.50;3.70;;;24.30;99.90;;;;;;5053330;28;20028;-70
2024/03/04 06:52:18;;;;;;;12.70;3.00;;;24.40;99.90;;;;;;5048156;28;20033;-60
2024/03/04 06:54:45;;;;;;;12.15;3.22;;;24.10;99.90;;;;;;5045502;28;20033;-62
2024/03/04 06:57:14;;;;;;;17.48;4.15;;;24.00;99.90;;;;;;5043784;28;20028;-71
2024/03/04 06:59:41;;;;;;;11.82;3.45;;;23.60;99.90;;;;;;5042258;28;20391;-70
2024/03/04 07:02:08;;;;;;;12.75;3.92;;;23.50;99.90;;;;;;5049923;28;20147;-68
2024/03/04 07:04:35;;;;;;;12.23;3.72;;;23.40;99.90;;;;;;5049738;28;20028;-60
2024/03/04 07:07:02;;;;;;;16.38;3.70;;;23.60;99.90;;;;;;5053562;28;20029;-64
2024/03/04 07:09:29;;;;;;;13.60;3.20;;;23.50;99.90;;;;;;5049729;28;20020;-68
2024/03/04 07:11:56;;;;;;;15.98;3.72;;;23.10;99.90;;;;;;5052868;28;20027;-66
2024/03/04 07:14:23;;;;;;;15.48;4.15;;;23.00;99.90;;;;;;5048059;28;20032;-61
2024/03/04 07:16:50;;;;;;;12.40;3.72;;;22.80;99.90;;;;;;5055830;28;20057;-67
2024/03/04 07:19:17;;;;;;;12.88;3.63;;;22.70;99.90;;;;;;5051701;28;20505;-64
2024/03/04 07:21:44;;;;;;;14.60;3.60;;;22.70;99.90;;;;;;5052598;28;20040;-62
2024/03/04 07:24:11;;;;;;;12.00;3.47;;;22.70;99.90;;;;;;5053840;28;20043;-62
2024/03/04 07:26:38;;;;;;;9.73;3.20;;;22.50;99.90;;;;;;5050876;28;20044;-68
2024/03/04 07:29:06;;;;;;;10.48;3.45;;;22.50;99.90;;;;;;5051996;28;20028;-67
2024/03/04 07:31:33;;;;;;;12.82;3.17;;;22.40;99.90;;;;;;5050392;28;20496;-68
2024/03/04 07:34:00;;;;;;;18.15;4.55;;;22.20;99.90;;;;;;5048874;28;20067;-62
2024/03/04 07:36:27;;;;;;;8.40;2.70;;;22.20;99.90;;;;;;5049693;28;20024;-66
2024/03/04 07:38:54;;;;;;;11.27;2.95;;;22.20;99.90;;;;;;5050705;28;20056;-62
2024/03/04 07:41:21;;;;;;;10.38;3.03;;;22.20;99.90;;;;;;5050377;28;20031;-67
2024/03/04 07:43:48;;;;;;;10.18;3.35;;;22.20;99.90;;;;;;5049985;28;20060;-69
2024/03/04 07:46:15;;;;;;;12.40;3.20;;;22.10;99.90;;;;;;5051137;28;20024;-63
2024/03/04 07:48:42;;;;;;;14.15;4.00;;;22.20;99.90;;;;;;5050783;28;20502;-68
2024/03/04 07:51:10;;;;;;;12.40;3.65;;;22.10;99.90;;;;;;5050215;28;20554;-61
2024/03/04 07:53:37;;;;;;;14.63;3.17;;;22.00;99.90;;;;;;5051562;28;20344;-60
2024/03/04 07:56:04;;;;;;;14.20;3.15;;;22.00;99.90;;;;;;5050398;28;20032;-62
2024/03/04 07:58:33;;;;;;;12.38;3.67;;;22.00;99.90;;;;;;5053195;28;20242;-66
2024/03/04 08:01:00;;;;;;;12.48;3.40;;;21.90;99.90;;;;;;5053100;28;20855;-65
2024/03/04 08:03:27;;;;;;;13.18;2.85;;;21.80;99.90;;;;;;5047392;28;20063;-69
2024/03/04 08:05:54;;;;;;;13.82;3.30;;;21.70;99.90;;;;;;5049628;28;20151;-59
2024/03/04 08:08:21;;;;;;;14.85;4.68;;;21.50;99.90;;;;;;5051135;28;20260;-61
2024/03/04 08:10:48;;;;;;;13.95;3.72;;;21.50;99.90;;;;;;5047489;28;20028;-64
2024/03/04 08:13:15;;;;;;;14.55;4.03;;;21.40;99.90;;;;;;5048308;28;20030;-61
2024/03/04 08:15:42;;;;;;;13.40;3.15;;;21.40;99.90;;;;;;5049312;28;20028;-67
2024/03/04 08:18:12;;;;;;;14.85;4.30;;;21.40;99.90;;;;;;5048171;28;20432;-61
2024/03/04 08:20:39;;;;;;;10.90;3.30;;;21.20;99.90;;;;;;5049389;28;20036;-61
2024/03/04 08:23:06;;;;;;;10.43;2.90;;;21.10;99.90;;;;;;5050241;28;20028;-67
2024/03/04 08:25:33;;;;;;;14.30;3.60;;;21.10;99.90;;;;;;5050561;28;20044;-64
2024/03/04 08:28:00;;;;;;;10.10;2.70;;;21.00;99.90;;;;;;5054146;28;20028;-61
2024/03/04 08:30:27;;;;;;;12.75;4.18;;;21.00;99.90;;;;;;5051519;28;20024;-66
2024/03/04 08:32:54;;;;;;;13.45;3.80;;;20.90;99.90;;;;;;5045896;28;20099;-62
2024/03/04 08:35:21;;;;;;;12.40;3.45;;;20.90;99.90;;;;;;5042586;28;20349;-70
2024/03/04 08:37:48;;;;;;;13.20;4.15;;;20.80;99.90;;;;;;5042995;28;20143;-70
2024/03/04 08:40:15;;;;;;;11.98;3.97;;;20.80;99.90;;;;;;5039460;28;20403;-66
2024/03/04 08:42:43;;;;;;;11.63;3.85;;;20.70;99.90;;;;;;5040872;28;20457;-71
2024/03/04 08:45:10;;;;;;;11.68;3.25;;;20.60;99.90;;;;;;5040563;28;20025;-62
2024/03/04 08:47:37;;;;;;;17.67;4.15;;;20.60;99.90;;;;;;5039795;28;20793;-67
2024/03/04 08:50:04;;;;;;;16.38;3.97;;;20.60;99.90;;;;;;5045691;28;20380;-67
2024/03/04 08:52:31;;;;;;;12.00;3.50;;;20.60;99.90;;;;;;5043733;28;20542;-61
2024/03/04 08:54:59;;;;;;;13.27;3.83;;;20.50;99.90;;;;;;5051849;28;20043;-60
2024/03/04 08:57:26;;;;;;;11.52;3.40;;;20.60;99.90;;;;;;5051621;28;20040;-60
2024/03/04 08:59:53;;;;;;;11.15;3.15;;;20.60;99.90;;;;;;5051273;28;20684;-71
2024/03/04 09:02:20;;;;;;;12.00;2.90;;;20.60;99.90;;;;;;5050065;28;20542;-61
2024/03/04 09:04:48;;;;;;;14.25;3.38;;;20.60;99.90;;;;;;5049502;28;20112;-70
2024/03/04 09:07:15;;;;;;;10.50;3.00;;;20.70;99.90;;;;;;5047938;28;20093;-67
2024/03/04 09:09:50;;;;;;;10.30;3.15;;;20.70;99.90;;;;;;5052102;28;20278;-60
2024/03/04 09:12:17;;;;;;;13.75;3.72;;;20.80;99.90;;;;;;5047793;28;20029;-60
2024/03/04 09:14:44;;;;;;;14.07;3.25;;;20.80;99.90;;;;;;5048060;28;20071;-60
2024/03/04 09:17:12;;;;;;;9.40;2.88;;;20.70;99.90;;;;;;5051383;28;20029;-61
2024/03/04 09:19:41;;;;;;;13.40;3.22;;;20.60;99.90;;;;;;5050071;28;20029;-60
2024/03/04 09:22:11;;;;;;;13.18;3.88;;;20.60;99.90;;;;;;5046471;28;20033;-69
2024/03/04 09:24:40;;;;;;;16.00;4.03;;;20.50;99.90;;;;;;5046494;28;20052;-69
2024/03/04 09:27:07;;;;;;;9.52;3.03;;;20.50;99.90;;;;;;5049561;28;20035;-62
2024/03/04 09:29:34;;;;;;;12.88;3.20;;;20.40;99.90;;;;;;5048633;28;20040;-61
2024/03/04 09:32:01;;;;;;;11.45;4.03;;;20.40;99.90;;;;;;5044976;28;20187;-61
2024/03/04 09:34:28;;;;;;;12.45;3.08;;;20.50;99.90;;;;;;5034788;22;20053;-61
2024/03/04 09:36:55;;;;;;;17.20;3.05;;;20.40;99.90;;;;;;5006354;28;20532;-59
2024/03/04 09:39:22;;;;;;;14.40;3.05;;;20.30;99.90;;;;;;5006793;28;20406;-68
2024/03/04 09:41:49;;;;;;;10.82;3.13;;;20.30;99.90;;;;;;5002159;28;20029;-59
2024/03/04 09:44:16;;;;;;;10.40;3.13;;;20.30;99.90;;;;;;5000955;28;20046;-61
2024/03/04 09:46:44;;;;;;;17.05;3.15;;;20.30;99.90;;;;;;5006059;28;20030;-60
2024/03/04 09:49:13;;;;;;;12.50;3.72;;;20.30;99.90;;;;;;5019073;28;20030;-70
2024/03/04 09:51:41;;;;;;;7.78;2.72;;;20.40;99.90;;;;;;5004246;28;20569;-60
2024/03/04 09:54:13;;;;;;;15.55;3.00;;;20.40;99.90;;;;;;5006055;28;20543;-66
2024/03/04 09:56:40;;;;;;;17.00;3.08;;;20.40;99.90;;;;;;5009588;28;20025;-69
2024/03/04 09:59:08;;;;;;;17.80;3.80;;;20.50;99.90;;;;;;5004874;28;20527;-65
2024/03/04 10:01:36;;;;;;;16.95;3.38;;;20.50;99.90;;;;;;5007223;28;20064;-68
2024/03/04 10:04:06;;;;;;;12.18;3.75;;;20.50;99.90;;;;;;5003937;28;20087;-70
2024/03/04 10:06:34;;;;;;;14.73;2.90;;;20.50;99.90;;;;;;5002573;28;20025;-68
2024/03/04 10:09:01;;;;;;;13.32;2.80;;;20.50;99.90;;;;;;5006379;28;20813;-66
2024/03/04 10:11:28;;;;;;;13.00;3.00;;;20.50;99.90;;;;;;5007146;28;20399;-67
2024/03/04 10:13:56;;;;;;;10.93;2.65;;;20.40;99.90;;;;;;5010318;28;20112;-67
2024/03/04 10:16:23;;;;;;;15.02;3.50;;;20.30;99.90;;;;;;5012333;28;20029;-60
2024/03/04 10:19:03;;;;;;;10.75;3.30;;;20.20;99.90;;;;;;5010279;28;20537;-68
2024/03/04 10:21:33;;;;;;;14.65;3.63;;;20.10;99.90;;;;;;5007984;28;20520;-60
2024/03/04 10:24:08;;;;;;;16.10;3.30;;;20.10;99.90;;;;;;5002318;28;20735;-65
2024/03/04 10:26:42;;;;;;;13.82;3.33;;;20.10;99.90;;;;;;5003183;28;20030;-68
2024/03/04 10:29:12;;;;;;;12.13;2.78;;;20.10;99.90;;;;;;5002057;28;20145;-65
2024/03/04 10:31:52;;;;;;;12.70;3.70;;;20.00;99.90;;;;;;5002421;28;20030;-61
2024/03/04 10:34:20;;;;;;;18.10;3.33;;;20.00;99.90;;;;;;5004945;28;20081;-61
2024/03/04 10:36:48;;;;;;;6.22;2.70;;;20.10;99.90;;;;;;4659388;28;9999922;-69
2024/03/04 10:39:16;;;;;;;15.55;3.38;;;20.10;99.90;;;;;;5001347;28;20639;-69
2024/03/04 10:41:46;;;;;;;15.30;3.13;;;20.10;99.90;;;;;;5002732;28;20037;-59
2024/03/04 10:44:26;;;;;;;16.10;3.60;;;20.10;99.90;;;;;;5003107;28;20022;-69
2024/03/04 10:46:58;;;;;;;14.48;3.55;;;20.00;99.90;;;;;;5003346;28;20095;-69
2024/03/04 10:49:26;;;;;;;14.67;3.47;;;20.10;99.90;;;;;;5000438;28;20341;-68
2024/03/04 10:51:53;;;;;;;13.70;3.00;;;20.20;99.90;;;;;;5001314;28;20295;-59
2024/03/04 10:54:22;;;;;;;11.55;3.05;;;20.20;99.90;;;;;;5000663;28;20076;-65
2024/03/04 10:57:01;;;;;;;13.50;3.42;;;20.20;99.90;;;;;;4995728;28;20034;-60
2024/03/04 10:59:41;;;;;;;8.85;2.67;;;20.10;99.90;;;;;;5002845;28;20022;-69
2024/03/04 11:02:31;;;;;;;9.18;2.80;;;19.90;99.90;;;;;;5001448;28;20084;-66
2024/03/04 11:05:02;;;;;;;8.20;2.60;;;19.90;99.90;;;;;;5002659;28;20088;-65
2024/03/04 11:07:34;;;;;;;12.18;3.22;;;19.90;99.90;;;;;;4999270;28;20029;-61
2024/03/04 11:10:08;;;;;;;8.77;2.85;;;20.00;99.90;;;;;;4996964;28;20028;-69
2024/03/04 11:12:39;;;;;;;12.50;3.50;;;20.00;99.90;;;;;;5002469;28;20120;-61
2024/03/04 11:15:11;;;;;;;9.73;3.10;;;20.10;99.90;;;;;;5000510;28;20026;-68
2024/03/04 11:17:46;;;;;;;12.23;2.97;;;20.10;99.90;;;;;;5002189;28;20030;-69
2024/03/04 11:20:18;;;;;;;14.43;3.33;;;20.10;99.90;;;;;;5001105;28;20034;-60
2024/03/04 11:22:46;;;;;;;7.88;2.88;;;20.20;99.90;;;;;;5001292;28;20072;-66
2024/03/04 11:25:14;;;;;;;12.13;3.35;;;20.10;99.90;;;;;;4997938;28;20029;-69
2024/03/04 11:27:42;;;;;;;12.23;2.38;;;20.10;99.90;;;;;;4994991;28;20041;-60
2024/03/04 11:30:10;;;;;;;13.80;2.90;;;20.10;99.90;;;;;;5002227;28;20350;-59
2024/03/04 11:32:37;;;;;;;7.45;2.30;;;20.10;99.90;;;;;;5003537;28;20045;-60
2024/03/04 11:35:13;;;;;;;9.65;2.90;;;20.00;99.90;;;;;;5006104;28;20077;-60
2024/03/04 11:37:50;;;;;;;12.95;3.63;;;20.00;99.90;;;;;;5008421;28;20029;-62
2024/03/04 11:40:24;;;;;;;9.90;3.10;;;20.00;99.90;;;;;;5005051;28;20477;-67
2024/03/04 11:42:51;;;;;;;10.75;2.70;;;19.90;99.90;;;;;;5001021;28;20095;-68
2024/03/04 11:45:29;;;;;;;11.95;3.42;;;19.70;99.90;;;;;;5004960;28;20563;-61
2024/03/04 11:47:56;;;;;;;10.50;3.30;;;19.70;99.90;;;;;;5004413;28;20467;-67
2024/03/04 11:50:46;;;;;;;11.93;2.80;;;19.70;99.90;;;;;;5006120;28;20416;-62
2024/03/04 11:53:26;;;;;;;9.25;2.42;;;19.60;99.90;;;;;;4999984;28;20064;-67
2024/03/04 11:55:53;;;;;;;9.20;2.55;;;19.30;99.90;;;;;;5003249;28;20508;-68
2024/03/04 11:58:22;;;;;;;10.52;2.65;;;19.10;99.90;;;;;;5005884;28;20029;-62
2024/03/04 12:00:53;;;;;;;11.35;3.05;;;19.10;99.90;;;;;;5005952;28;20064;-67
2024/03/04 12:03:20;;;;;;;8.32;2.50;;;19.00;99.90;;;;;;5005866;28;20527;-62
2024/03/04 12:05:47;;;;;;;11.40;3.05;;;18.90;99.90;;;;;;5004726;28;20029;-68
2024/03/04 12:08:14;;;;;;;11.27;2.80;;;18.70;99.90;;;;;;5004128;28;20041;-62
2024/03/04 12:10:42;;;;;;;9.93;3.05;;;18.70;99.90;;;;;;5006704;28;20022;-69
2024/03/04 12:13:09;;;;;;;8.88;2.80;;;18.60;99.90;;;;;;5006753;28;20030;-68
2024/03/04 12:15:36;;;;;;;11.38;2.78;;;18.50;99.90;;;;;;5006844;28;20061;-62
2024/03/04 12:18:04;;;;;;;7.13;2.30;;;18.60;99.90;;;;;;5006798;28;20037;-68
2024/03/04 12:20:31;;;;;;;9.98;3.05;;;18.40;99.90;;;;;;5005976;28;20032;-61
2024/03/04 12:23:01;;;;;;;11.68;3.10;;;18.50;99.90;;;;;;5005621;28;20041;-68
2024/03/04 12:25:28;;;;;;;9.70;2.67;;;18.50;99.90;;;;;;5005148;28;20025;-67
2024/03/04 12:27:57;;;;;;;10.73;2.65;;;18.20;99.90;;;;;;5020182;28;20386;-62
2024/03/04 12:30:26;;;;;;;9.40;2.55;;;18.00;99.90;;;;;;5004899;28;20045;-62
2024/03/04 12:32:54;;;;;;;11.13;3.03;;;17.90;99.90;;;;;;5005400;28;20026;-68
2024/03/04 12:35:27;;;;;;;8.23;2.00;;;17.90;99.90;;;;;;5001103;28;20053;-62
2024/03/04 12:37:55;;;;;;;13.55;3.25;;;17.90;99.90;;;;;;5004536;28;20029;-69
2024/03/04 12:40:23;;;;;;;13.63;3.53;;;18.00;99.90;;;;;;5004981;28;20631;-62
2024/03/04 12:43:02;;;;;;;9.63;2.17;;;18.00;99.90;;;;;;5004637;28;20081;-67
2024/03/04 12:45:33;;;;;;;14.48;3.42;;;18.00;99.90;;;;;;5002092;28;20034;-61
2024/03/04 12:48:00;;;;;;;8.63;2.80;;;18.10;99.90;;;;;;5003089;28;20026;-61
2024/03/04 12:50:30;;;;;;;8.55;2.30;;;18.00;99.90;;;;;;5005269;28;20397;-67
2024/03/04 12:52:58;;;;;;;11.80;3.88;;;18.00;99.90;;;;;;5004710;28;20095;-61
2024/03/04 12:55:25;;;;;;;8.38;2.75;;;17.80;99.90;;;;;;5004309;28;20037;-68
2024/03/04 12:57:55;;;;;;;7.53;2.50;;;17.60;99.90;;;;;;5004746;28;20029;-67
2024/03/04 13:00:23;;;;;;;7.00;2.47;;;17.50;99.90;;;;;;5004726;28;20497;-67
2024/03/04 13:02:50;;;;;;;10.35;2.90;;;17.60;99.90;;;;;;5004627;28;20061;-67
2024/03/04 13:05:17;;;;;;;9.63;3.30;;;17.50;99.90;;;;;;5004376;28;20382;-61
2024/03/04 13:07:45;;;;;;;9.55;2.67;;;17.60;99.90;;;;;;5018936;28;20559;-67
2024/03/04 13:10:14;;;;;;;10.75;2.70;;;17.50;99.90;;;;;;5001659;28;20469;-67
2024/03/04 13:12:43;;;;;;;10.95;3.42;;;17.40;99.90;;;;;;5004225;28;20120;-66
2024/03/04 13:15:11;;;;;;;9.30;2.53;;;17.40;99.90;;;;;;5004444;28;20370;-62
2024/03/04 13:17:42;;;;;;;9.55;3.03;;;17.30;99.90;;;;;;5004423;28;20405;-67
2024/03/04 13:20:10;;;;;;;10.82;2.40;;;17.30;99.90;;;;;;5004370;28;20022;-61
2024/03/04 13:22:50;;;;;;;14.10;3.53;;;17.30;99.90;;;;;;5000548;28;20041;-62
2024/03/04 13:25:19;;;;;;;11.70;2.53;;;17.20;99.90;;;;;;5004873;28;20026;-67
2024/03/04 13:27:47;;;;;;;13.30;2.78;;;17.20;99.90;;;;;;5003895;28;20021;-62
2024/03/04 13:30:14;;;;;;;9.65;2.63;;;17.20;99.90;;;;;;5002104;28;20026;-62
2024/03/04 13:32:41;;;;;;;12.43;2.53;;;17.10;99.90;;;;;;5004224;28;20018;-67
2024/03/04 13:35:09;;;;;;;11.88;2.97;;;17.10;99.90;;;;;;5004760;28;20737;-62
2024/03/04 13:37:36;;;;;;;9.80;2.95;;;17.10;99.90;;;;;;5002804;28;20034;-62
2024/03/04 13:40:12;;;;;;;12.40;2.92;;;17.20;99.90;;;;;;5004140;28;20922;-61
2024/03/04 13:42:40;;;;;;;12.70;3.72;;;17.10;99.90;;;;;;5003891;28;20385;-67
2024/03/04 13:45:08;;;;;;;12.30;2.90;;;17.10;99.90;;;;;;5004353;28;20041;-65
2024/03/04 13:47:35;;;;;;;10.68;3.15;;;17.10;99.90;;;;;;5005681;28;20270;-60
2024/03/04 13:50:02;;;;;;;9.18;2.80;;;17.10;99.90;;;;;;5008515;28;20324;-68
2024/03/04 13:52:29;;;;;;;16.27;3.33;;;17.10;99.90;;;;;;5007985;28;20501;-60
2024/03/04 13:54:56;;;;;;;14.05;2.90;;;17.00;99.90;;;;;;5007654;28;20033;-68
2024/03/04 13:57:23;;;;;;;10.13;3.40;;;17.00;99.90;;;;;;5008163;28;20481;-68
2024/03/04 13:59:50;;;;;;;15.00;3.95;;;17.00;99.90;;;;;;5008526;28;20053;-67
2024/03/04 14:02:17;;;;;;;15.18;3.85;;;16.90;99.90;;;;;;5007185;28;20030;-61
2024/03/04 14:04:44;;;;;;;9.85;2.85;;;16.80;99.90;;;;;;5007967;28;20021;-61
2024/03/04 14:07:11;;;;;;;14.15;2.83;;;16.80;99.90;;;;;;5005957;28;20108;-61
2024/03/04 14:09:38;;;;;;;14.43;3.47;;;16.80;99.90;;;;;;5007118;28;20030;-61
2024/03/04 14:12:05;;;;;;;13.38;3.63;;;16.70;99.90;;;;;;5006859;28;20041;-61
2024/03/04 14:14:32;;;;;;;11.93;3.38;;;16.80;99.90;;;;;;5007807;28;20084;-60
2024/03/04 14:17:00;;;;;;;12.68;3.97;;;16.70;99.90;;;;;;5008066;28;20058;-68
2024/03/04 14:19:27;;;;;;;9.38;2.80;;;16.70;99.90;;;;;;5006470;28;20128;-68
2024/03/04 14:21:54;;;;;;;15.30;4.07;;;16.80;99.90;;;;;;5006083;28;20484;-61
2024/03/04 14:24:20;;;;;;;11.40;3.33;;;16.80;99.90;;;;;;5007536;28;20056;-66
2024/03/04 14:26:47;;;;;;;12.80;3.30;;;16.70;99.90;;;;;;5007530;28;20089;-66
2024/03/04 14:29:14;;;;;;;10.73;3.83;;;16.70;99.90;;;;;;5004457;28;20503;-61
2024/03/04 14:31:42;;;;;;;10.82;2.83;;;16.60;99.90;;;;;;5007204;28;20026;-61
2024/03/04 14:34:08;;;;;;;10.10;2.70;;;16.70;99.90;;;;;;5006994;28;20057;-67
2024/03/04 14:36:36;;;;;;;13.18;3.15;;;16.70;99.90;;;;;;5008214;28;20145;-67
2024/03/04 14:39:03;;;;;;;13.88;3.25;;;16.70;99.90;;;;;;5006203;28;20069;-67
2024/03/04 14:41:30;;;;;;;13.15;3.03;;;16.80;99.90;;;;;;5001284;28;20097;-67
2024/03/04 14:43:57;;;;;;;11.43;3.22;;;16.80;99.90;;;;;;5006594;28;20491;-61
2024/03/04 14:46:24;;;;;;;12.02;3.72;;;16.80;99.90;;;;;;5007181;28;20065;-67
2024/03/04 14:48:51;;;;;;;11.40;3.30;;;16.80;99.90;;;;;;5001355;28;20109;-61
2024/03/04 14:51:18;;;;;;;13.55;2.97;;;16.70;99.90;;;;;;5006935;28;20022;-61
2024/03/04 14:53:45;;;;;;;10.98;3.45;;;16.70;99.90;;;;;;5006835;28;20033;-60
2024/03/04 14:56:12;;;;;;;9.52;3.35;;;16.70;99.90;;;;;;5006141;28;20029;-66
2024/03/04 14:58:39;;;;;;;13.13;3.17;;;16.80;99.90;;;;;;5006489;28;20072;-61
2024/03/04 15:01:09;;;;;;;14.30;3.25;;;17.00;99.90;;;;;;5005781;28;20033;-61
2024/03/04 15:03:37;;;;;;;16.77;3.72;;;17.10;99.90;;;;;;5006378;28;20022;-66
2024/03/04 15:06:04;;;;;;;14.75;3.63;;;17.10;99.90;;;;;;5007417;28;20057;-61
2024/03/04 15:08:33;;;;;;;11.23;3.50;;;17.00;99.90;;;;;;5006252;28;20076;-61
2024/03/04 15:11:10;;;;;;;16.08;3.67;;;16.90;99.90;;;;;;5000480;28;20072;-67
2024/03/04 15:13:38;;;;;;;10.98;2.72;;;16.80;99.90;;;;;;5006301;28;20022;-67
2024/03/04 15:16:08;;;;;;;10.05;3.10;;;16.80;99.90;;;;;;5007063;28;20038;-61
2024/03/04 15:18:38;;;;;;;11.52;3.55;;;16.70;99.90;;;;;;5005751;28;20026;-67
2024/03/04 15:21:06;;;;;;;9.85;3.22;;;16.70;99.90;;;;;;5006635;28;20064;-66
2024/03/04 15:23:34;;;;;;;10.25;2.72;;;16.70;99.90;;;;;;5005815;28;20552;-61
2024/03/04 15:26:01;;;;;;;10.70;3.00;;;16.70;99.90;;;;;;5006657;28;20030;-67
2024/03/04 15:28:28;;;;;;;12.85;3.53;;;16.70;99.90;;;;;;5006634;28;20060;-61
2024/03/04 15:30:55;;;;;;;13.88;3.10;;;16.80;99.90;;;;;;5005508;28;20439;-61
2024/03/04 15:33:22;;;;;;;10.93;3.33;;;16.80;99.90;;;;;;5005908;28;20030;-66
2024/03/04 15:35:49;;;;;;;15.07;3.58;;;16.80;99.90;;;;;;5006546;28;20073;-66
2024/03/04 15:38:16;;;;;;;8.93;2.90;;;16.90;99.90;;;;;;5005673;28;20045;-67
2024/03/04 15:40:43;;;;;;;16.00;4.22;;;16.90;99.90;;;;;;5005977;28;20030;-68
2024/03/04 15:43:10;;;;;;;15.93;3.97;;;16.80;99.90;;;;;;5002648;28;20495;-61
2024/03/04 15:45:37;;;;;;;14.93;3.67;;;16.80;99.90;;;;;;5005964;28;20037;-61
2024/03/04 15:48:07;;;;;;;9.23;2.88;;;16.70;99.90;;;;;;5002568;28;20028;-61
2024/03/04 15:50:34;;;;;;;11.18;3.88;;;16.60;99.90;;;;;;5006398;28;20068;-61
2024/03/04 15:53:01;;;;;;;12.90;3.67;;;16.60;99.90;;;;;;5005708;28;20092;-61
2024/03/04 15:55:28;;;;;;;11.95;3.55;;;16.60;99.90;;;;;;5004868;28;20029;-66
2024/03/04 15:57:55;;;;;;;19.50;3.80;;;16.70;99.90;;;;;;5006213;28;20116;-67
2024/03/04 16:00:22;;;;;;;11.07;2.90;;;16.80;99.90;;;;;;5006069;28;20072;-66
2024/03/04 16:02:52;;;;;;;14.82;3.42;;;16.80;99.90;;;;;;5005483;28;20041;-61
2024/03/04 16:05:19;;;;;;;13.05;2.97;;;16.90;99.90;;;;;;5005216;28;20030;-61
2024/03/04 16:08:11;;;;;;;11.82;3.25;;;16.60;99.90;;;;;;5005190;28;20022;-61
2024/03/04 16:10:38;;;;;;;9.38;3.35;;;16.30;99.90;;;;;;5001825;28;20034;-61
2024/03/04 16:13:05;;;;;;;17.35;3.75;;;16.30;99.90;;;;;;5005793;28;20025;-61
2024/03/04 16:15:32;;;;;;;14.40;3.38;;;16.20;99.90;;;;;;5005717;28;20109;-61
2024/03/04 16:17:59;;;;;;;10.13;3.00;;;16.20;99.90;;;;;;5004336;28;20033;-61
2024/03/04 16:20:26;;;;;;;14.85;3.30;;;16.20;99.90;;;;;;5004670;28;20480;-61
2024/03/04 16:22:53;;;;;;;10.10;3.10;;;16.20;99.90;;;;;;5005226;28;20047;-67
2024/03/04 16:25:20;;;;;;;14.35;3.08;;;16.10;99.90;;;;;;5004057;28;20034;-61
2024/03/04 16:27:48;;;;;;;11.65;3.15;;;16.20;99.90;;;;;;5005569;28;20080;-66
2024/03/04 16:30:15;;;;;;;19.63;3.95;;;16.30;99.90;;;;;;5004688;28;20026;-61
2024/03/04 16:32:43;;;;;;;11.77;3.72;;;16.30;99.90;;;;;;5005271;28;20034;-67
2024/03/04 16:35:10;;;;;;;12.30;3.22;;;16.30;99.90;;;;;;5005641;28;20403;-66
2024/03/04 16:37:37;;;;;;;13.50;3.72;;;16.50;99.90;;;;;;5005272;28;20034;-68
2024/03/04 16:40:12;;;;;;;9.75;2.60;;;16.70;99.90;;;;;;5005576;28;20026;-62
2024/03/04 16:42:43;;;;;;;11.23;3.75;;;16.70;99.90;;;;;;5002143;28;20492;-62
2024/03/04 16:45:10;;;;;;;8.35;3.50;;;16.80;99.90;;;;;;5001234;28;20029;-62
2024/03/04 16:47:38;;;;;;;14.68;3.30;;;16.80;99.90;;;;;;5002582;28;20294;-68
2024/03/04 16:50:08;;;;;;;16.85;3.70;;;16.80;99.90;;;;;;5003605;28;20551;-68
2024/03/04 16:52:35;;;;;;;9.68;2.58;;;16.90;99.90;;;;;;5004190;28;20485;-62
2024/03/04 16:55:02;;;;;;;9.88;2.90;;;16.90;99.90;;;;;;5004747;28;20140;-67
2024/03/04 16:57:30;;;;;;;11.00;2.88;;;17.10;99.90;;;;;;5004755;28;21358;-62
2024/03/04 16:59:57;;;;;;;14.50;4.60;;;17.10;99.90;;;;;;5004640;28;20060;-67
2024/03/04 17:02:23;;;;;;;13.40;2.72;;;17.20;99.90;;;;;;5005654;28;20093;-62
2024/03/04 17:04:51;;;;;;;10.63;2.60;;;17.20;99.90;;;;;;5005667;28;20028;-62
2024/03/04 17:07:19;;;;;;;12.38;3.15;;;17.20;99.90;;;;;;5004402;28;20029;-68
2024/03/04 17:09:46;;;;;;;13.77;3.03;;;17.20;99.90;;;;;;5004945;28;20527;-67
2024/03/04 17:12:12;;;;;;;11.32;3.35;;;17.30;99.90;;;;;;5004712;28;20050;-62
2024/03/04 17:14:39;;;;;;;11.48;2.95;;;17.30;99.90;;;;;;5005003;28;20029;-62
2024/03/04 17:17:06;;;;;;;12.15;3.25;;;17.30;99.90;;;;;;5005049;28;20033;-62
2024/03/04 17:19:37;;;;;;;14.50;3.67;;;17.40;99.90;;;;;;5003683;28;20499;-68
2024/03/04 17:22:04;;;;;;;12.43;3.20;;;17.40;99.90;;;;;;5004793;28;20029;-66
2024/03/04 17:24:31;;;;;;;11.00;2.85;;;17.40;99.90;;;;;;5004663;28;20037;-66
2024/03/04 17:26:58;;;;;;;13.25;3.15;;;17.40;99.90;;;;;;5004555;28;20033;-67
2024/03/04 17:29:25;;;;;;;11.07;3.55;;;17.50;99.90;;;;;;5004588;28;20132;-60
2024/03/04 17:31:52;;;;;;;11.82;2.78;;;17.50;99.90;;;;;;5004328;28;20025;-67
2024/03/04 17:34:19;;;;;;;10.15;3.05;;;17.40;99.90;;;;;;5005193;28;20058;-60
2024/03/04 17:36:46;;;;;;;17.17;3.30;;;17.60;99.90;;;;;;5005582;28;20419;-67
2024/03/04 17:39:13;;;;;;;10.55;3.13;;;17.60;99.90;;;;;;5005421;28;20022;-67
2024/03/04 17:41:40;;;;;;;13.35;3.00;;;17.60;99.90;;;;;;5004748;28;20072;-60
2024/03/04 17:44:08;;;;;;;9.88;2.90;;;17.60;99.90;;;;;;5004671;28;20049;-60
2024/03/04 17:46:39;;;;;;;13.77;3.05;;;17.60;99.90;;;;;;5004602;28;20026;-61
2024/03/04 17:49:06;;;;;;;11.25;3.13;;;17.60;99.90;;;;;;5002756;28;20049;-61
2024/03/04 17:51:42;;;;;;;8.75;3.25;;;17.60;99.90;;;;;;5005914;28;20539;-68
2024/03/04 17:54:10;;;;;;;11.60;3.15;;;17.60;99.90;;;;;;5000913;28;20034;-68
2024/03/04 17:56:40;;;;;;;14.18;4.03;;;17.50;99.90;;;;;;5003114;28;20084;-68
2024/03/04 17:59:07;;;;;;;13.98;3.13;;;17.40;99.90;;;;;;4998255;28;20044;-66
2024/03/04 18:01:34;;;;;;;8.00;2.80;;;17.40;99.90;;;;;;5004823;28;20037;-61
2024/03/04 18:04:02;;;;;;;13.15;3.22;;;17.40;99.90;;;;;;4999938;28;20026;-66
2024/03/04 18:06:30;;;;;;;14.02;3.25;;;17.30;99.90;;;;;;5004649;28;20116;-68
2024/03/04 18:08:56;;;;;;;11.15;2.88;;;17.30;99.90;;;;;;5005132;28;20497;-68